createdAt,value
2022-11-24T00:00:36.462Z,7.97
2022-11-24T00:05:39.754Z,7.82
2022-11-24T00:10:43.091Z,7.47
2022-11-24T00:15:47.809Z,7.18
2022-11-24T00:20:54.128Z,8.27
2022-11-24T00:25:57.451Z,8.02
2022-11-24T00:31:02.523Z,7.32
2022-11-24T00:36:06.367Z,6.90
2022-11-24T00:41:10.054Z,7.30
2022-11-24T00:46:14.950Z,7.80
2022-11-24T00:51:19.459Z,7.00
2022-11-24T00:56:22.758Z,7.32
2022-11-24T01:01:29.180Z,7.60
2022-11-24T01:06:35.374Z,7.53
2022-11-24T01:11:52.453Z,7.05
2022-11-24T01:16:57.572Z,7.32
2022-11-24T01:22:00.894Z,7.78
2022-11-24T01:27:04.218Z,7.03
2022-11-24T01:32:08.970Z,7.35
2022-11-24T01:37:12.327Z,6.22
2022-11-24T01:42:15.637Z,6.63
2022-11-24T01:47:34.802Z,8.15
2022-11-24T01:52:42.358Z,7.07
2022-11-24T01:57:48.727Z,7.00
2022-11-24T02:02:54.554Z,6.18
2022-11-24T02:08:01.797Z,6.68
2022-11-24T02:13:05.919Z,7.03
2022-11-24T02:18:10.783Z,6.40
2022-11-24T02:23:22.322Z,7.00
2022-11-24T02:28:30.668Z,7.00
2022-11-24T02:33:35.638Z,6.03
2022-11-24T02:43:47.898Z,7.25
2022-11-24T02:48:51.237Z,6.60
2022-11-24T02:53:54.552Z,7.65
2022-11-24T02:58:59.282Z,6.25
2022-11-24T03:04:02.565Z,6.45
2022-11-24T03:09:06.239Z,5.78
2022-11-24T03:14:11.076Z,6.65
2022-11-24T03:19:14.576Z,7.32
2022-11-24T03:24:17.853Z,6.93
2022-11-24T03:29:23.355Z,6.57
2022-11-24T03:34:26.650Z,6.40
2022-11-24T03:39:29.980Z,6.28
2022-11-24T03:44:34.905Z,6.55
2022-11-24T03:49:38.349Z,6.85
2022-11-24T03:54:42.483Z,6.13
2022-11-24T03:59:47.450Z,5.97
2022-11-24T04:09:55.942Z,5.47
2022-11-24T04:15:00.506Z,5.80
2022-11-24T04:20:03.802Z,6.97
2022-11-24T04:25:08.715Z,6.82
2022-11-24T04:35:16.839Z,5.47
2022-11-24T04:40:20.450Z,7.40
2022-11-24T04:45:25.288Z,5.70
2022-11-24T04:50:28.511Z,6.10
2022-11-24T04:55:31.686Z,5.65
2022-11-24T05:00:36.220Z,6.22
2022-11-24T05:05:39.366Z,7.20
2022-11-24T05:10:43.155Z,6.05
2022-11-24T05:15:47.736Z,6.82
2022-11-24T05:20:50.896Z,5.80
2022-11-24T05:25:54.515Z,5.70
2022-11-24T05:31:01.945Z,6.20
2022-11-24T05:36:07.482Z,5.95
2022-11-24T05:41:10.637Z,6.68
2022-11-24T05:46:15.278Z,5.78
2022-11-24T05:51:18.643Z,6.10
2022-11-24T05:56:21.800Z,5.43
2022-11-24T06:01:26.394Z,5.15
2022-11-24T06:06:29.562Z,5.88
2022-11-24T06:11:32.801Z,5.82
2022-11-24T06:16:37.719Z,5.10
2022-11-24T06:26:43.887Z,5.68
2022-11-24T06:31:48.498Z,6.53
2022-11-24T06:36:51.666Z,5.60
2022-11-24T06:41:55.024Z,5.85
2022-11-24T06:46:59.582Z,5.78
2022-11-24T06:52:02.758Z,5.53
2022-11-24T06:57:05.918Z,5.20
2022-11-24T07:02:11.733Z,5.07
2022-11-24T07:07:14.933Z,5.97
2022-11-24T07:12:18.272Z,5.28
2022-11-24T07:17:22.857Z,5.28
2022-11-24T07:22:26.001Z,5.60
2022-11-24T07:27:30.342Z,4.15
2022-11-24T07:32:34.930Z,4.37
2022-11-24T07:37:38.058Z,5.13
2022-11-24T07:42:41.222Z,3.70
2022-11-24T07:47:45.815Z,3.95
2022-11-24T07:52:48.992Z,2.95
2022-11-24T07:57:52.125Z,3.17
2022-11-24T08:02:56.739Z,3.03
2022-11-24T08:08:01.443Z,3.03
2022-11-24T08:13:04.646Z,2.10
2022-11-24T08:18:10.489Z,2.78
2022-11-24T08:23:13.647Z,2.30
2022-11-24T08:28:16.906Z,2.00
2022-11-24T08:33:21.450Z,1.40
2022-11-24T08:38:24.603Z,1.60
2022-11-24T08:43:27.746Z,1.42
2022-11-24T08:48:32.475Z,2.00
2022-11-24T08:53:35.754Z,1.65
2022-11-24T08:58:39.680Z,1.90
2022-11-24T09:03:50.425Z,2.00
2022-11-24T09:08:55.833Z,1.30
2022-11-24T09:13:59.070Z,0.70
2022-11-24T09:19:06.444Z,0.70
2022-11-24T09:24:09.782Z,0.47
2022-11-24T09:29:13.795Z,0.60
2022-11-24T09:34:19.412Z,0.53
2022-11-24T09:39:22.817Z,0.30
2022-11-24T09:44:47.035Z,0.60
2022-11-24T09:49:59.176Z,0.60
2022-11-24T09:55:04.233Z,0.50
2022-11-24T10:00:14.167Z,0.70
2022-11-24T10:05:19.446Z,0.40
2022-11-24T10:10:27.099Z,0.80
2022-11-24T10:15:42.864Z,0.50
2022-11-24T10:20:59.351Z,0.52
2022-11-24T10:26:06.235Z,0.60
2022-11-24T10:31:24.810Z,0.60
2022-11-24T10:36:39.583Z,0.70
2022-11-24T10:41:50.077Z,0.90
2022-11-24T10:46:53.420Z,0.55
2022-11-24T10:52:07.952Z,0.73
2022-11-24T10:57:27.719Z,0.70
2022-11-24T11:02:35.064Z,0.70
2022-11-24T11:07:39.777Z,0.82
2022-11-24T11:12:44.680Z,1.00
2022-11-24T11:17:50.452Z,0.60
2022-11-24T11:22:56.498Z,1.00
2022-11-24T11:28:25.319Z,0.90
2022-11-24T11:38:54.695Z,0.80
2022-11-24T11:44:08.752Z,1.00
2022-11-24T11:49:14.063Z,0.70
2022-11-24T11:54:35.813Z,0.65
2022-11-24T11:59:59.188Z,0.80
2022-11-24T12:05:05.301Z,0.85
2022-11-24T12:10:22.985Z,1.05
2022-11-24T12:15:35.083Z,0.50
2022-11-24T12:20:51.416Z,0.63
2022-11-24T12:26:00.533Z,0.70
2022-11-24T12:31:07.948Z,0.88
2022-11-24T12:36:18.316Z,0.95
2022-11-24T12:41:42.644Z,0.95
2022-11-24T12:46:58.082Z,0.70
2022-11-24T12:52:08.031Z,0.90
2022-11-24T12:57:19.272Z,1.02
2022-11-24T13:02:31.318Z,1.60
2022-11-24T13:07:45.253Z,1.42
2022-11-24T13:12:59.145Z,1.10
2022-11-24T13:18:11.869Z,1.10
2022-11-24T13:23:25.719Z,1.23
2022-11-24T13:29:13.046Z,1.30
2022-11-24T13:34:55.853Z,1.60
2022-11-24T13:40:00.779Z,1.35
2022-11-24T13:45:07.508Z,1.20
2022-11-24T13:50:16.523Z,0.80
2022-11-24T13:55:40.332Z,0.80
2022-11-24T14:01:02.867Z,0.98
2022-11-24T14:06:06.370Z,1.00
2022-11-24T14:11:16.339Z,1.10
2022-11-24T14:16:22.520Z,1.00
2022-11-24T14:21:29.026Z,1.10
2022-11-24T14:26:35.832Z,1.10
2022-11-24T14:31:40.580Z,1.20
2022-11-24T14:41:53.777Z,1.55
2022-11-24T14:47:08.862Z,1.75
2022-11-24T14:52:15.214Z,1.30
2022-11-24T14:57:27.907Z,1.50
2022-11-24T15:02:45.715Z,1.85
2022-11-24T15:07:50.695Z,1.70
2022-11-24T15:12:56.972Z,1.75
2022-11-24T15:18:02.973Z,1.63
2022-11-24T15:23:25.284Z,1.95
2022-11-24T15:28:28.747Z,1.80
2022-11-24T15:33:33.819Z,2.50
2022-11-24T15:38:36.950Z,2.30
2022-11-24T15:43:41.650Z,2.38
2022-11-24T15:48:46.299Z,1.98
2022-11-24T15:53:55.785Z,1.90
2022-11-24T15:59:03.950Z,2.78
2022-11-24T16:04:08.534Z,2.30
2022-11-24T16:09:16.886Z,2.50
2022-11-24T16:14:20.235Z,2.50
2022-11-24T16:19:24.871Z,2.20
2022-11-24T16:24:27.996Z,2.65
2022-11-24T16:29:36.897Z,2.75
2022-11-24T16:34:42.833Z,2.55
2022-11-24T16:39:50.017Z,2.70
2022-11-24T16:44:53.540Z,2.90
2022-11-24T16:49:58.126Z,2.85
2022-11-24T16:55:01.832Z,3.28
2022-11-24T17:00:05.911Z,3.90
2022-11-24T17:05:11.065Z,2.97
2022-11-24T17:10:14.259Z,2.95
2022-11-24T17:15:32.581Z,3.47
2022-11-24T17:20:37.478Z,3.75
2022-11-24T17:25:40.609Z,3.45
2022-11-24T17:30:43.873Z,3.58
2022-11-24T17:35:48.430Z,3.83
2022-11-24T17:40:52.407Z,3.70
2022-11-24T17:45:56.607Z,4.77
2022-11-24T17:51:02.245Z,3.87
2022-11-24T17:56:05.783Z,3.72
2022-11-24T18:01:09.329Z,3.72
2022-11-24T18:06:15.172Z,3.75
2022-11-24T18:11:20.078Z,3.28
2022-11-24T18:21:27.784Z,3.10
2022-11-24T18:26:30.946Z,2.97
2022-11-24T18:31:35.608Z,3.28
2022-11-24T18:41:44.651Z,4.57
2022-11-24T18:46:47.806Z,4.30
2022-11-24T18:51:52.825Z,3.90
2022-11-24T18:57:01.750Z,5.03
2022-11-24T19:02:06.483Z,4.72
2022-11-24T19:07:11.112Z,4.57
2022-11-24T19:12:14.461Z,4.72
2022-11-24T19:17:18.142Z,4.75
2022-11-24T19:22:22.767Z,5.43
2022-11-24T19:27:25.900Z,8.00
2022-11-24T19:32:29.042Z,10.20
2022-11-24T19:37:33.646Z,11.27
2022-11-24T19:42:36.939Z,12.90
2022-11-24T19:47:40.083Z,13.45
2022-11-24T19:52:44.666Z,15.45
2022-11-24T19:57:47.797Z,13.73
2022-11-24T20:02:51.755Z,9.48
2022-11-24T20:07:56.426Z,9.27
2022-11-24T20:12:59.629Z,9.27
2022-11-24T20:18:03.063Z,8.20
2022-11-24T20:23:07.600Z,8.07
2022-11-24T20:28:11.800Z,9.73
2022-11-24T20:33:14.948Z,8.20
2022-11-24T20:38:19.543Z,7.82
2022-11-24T20:43:22.705Z,10.15
2022-11-24T20:48:25.855Z,16.52
2022-11-24T20:53:30.419Z,9.90
2022-11-24T20:58:33.961Z,14.32
2022-11-24T21:03:43.076Z,12.48
2022-11-24T21:08:48.214Z,11.82
2022-11-24T21:13:52.188Z,10.63
2022-11-24T21:18:59.340Z,9.00
2022-11-24T21:24:04.796Z,8.30
2022-11-24T21:29:08.927Z,6.60
2022-11-24T21:34:16.486Z,4.80
2022-11-24T21:39:21.116Z,5.25
2022-11-24T21:44:25.862Z,4.88
2022-11-24T21:49:29.731Z,4.00
2022-11-24T21:54:34.490Z,4.10
2022-11-24T22:04:40.854Z,3.60
2022-11-24T22:09:46.914Z,3.53
2022-11-24T22:14:50.229Z,3.45
2022-11-24T22:19:53.395Z,3.38
2022-11-24T22:24:58.039Z,3.47
2022-11-24T22:30:02.799Z,3.38
2022-11-24T22:35:07.145Z,3.42
2022-11-24T22:40:12.677Z,3.78
2022-11-24T22:45:15.985Z,3.80
2022-11-24T22:50:19.308Z,3.80
2022-11-24T22:55:24.037Z,3.83
2022-11-24T23:00:27.304Z,4.25
2022-11-24T23:05:30.497Z,4.43
2022-11-24T23:10:35.421Z,4.13
2022-11-24T23:20:42.028Z,3.80
2022-11-24T23:25:46.912Z,3.80
2022-11-24T23:35:53.533Z,4.78
2022-11-24T23:40:58.528Z,3.65
2022-11-24T23:46:06.032Z,4.60
2022-11-24T23:51:13.078Z,4.47
2022-11-24T23:56:19.997Z,6.28
